sensor_id;sensor_type;location;lat;lon;timestamp;temperature;humidity
5617;DHT22;2830;50.656;7.568;2023-06-26T00:01:40;17.80;99.90
5617;DHT22;2830;50.656;7.568;2023-06-26T00:04:07;17.80;99.90
5617;DHT22;2830;50.656;7.568;2023-06-26T00:06:34;17.80;99.90
5617;DHT22;2830;50.656;7.568;2023-06-26T00:09:00;17.70;99.90
5617;DHT22;2830;50.656;7.568;2023-06-26T00:11:27;17.60;99.90
5617;DHT22;2830;50.656;7.568;2023-06-26T00:13:57;17.60;99.90
5617;DHT22;2830;50.656;7.568;2023-06-26T00:16:23;17.60;99.90
5617;DHT22;2830;50.656;7.568;2023-06-26T00:18:55;17.70;99.90
5617;DHT22;2830;50.656;7.568;2023-06-26T00:21:22;17.70;99.90
5617;DHT22;2830;50.656;7.568;2023-06-26T00:23:48;17.70;99.90
5617;DHT22;2830;50.656;7.568;2023-06-26T00:26:15;17.60;99.90
5617;DHT22;2830;50.656;7.568;2023-06-26T00:28:42;17.50;99.90
5617;DHT22;2830;50.656;7.568;2023-06-26T00:31:08;17.50;99.90
5617;DHT22;2830;50.656;7.568;2023-06-26T00:33:35;17.50;99.90
5617;DHT22;2830;50.656;7.568;2023-06-26T00:36:02;17.40;99.90
5617;DHT22;2830;50.656;7.568;2023-06-26T00:38:28;17.40;99.90
5617;DHT22;2830;50.656;7.568;2023-06-26T00:40:55;17.40;99.90
5617;DHT22;2830;50.656;7.568;2023-06-26T00:43:22;17.40;99.90
5617;DHT22;2830;50.656;7.568;2023-06-26T00:45:49;17.40;99.90
5617;DHT22;2830;50.656;7.568;2023-06-26T00:48:16;17.40;99.90
5617;DHT22;2830;50.656;7.568;2023-06-26T00:50:43;17.30;99.90
5617;DHT22;2830;50.656;7.568;2023-06-26T00:53:11;17.30;99.90
5617;DHT22;2830;50.656;7.568;2023-06-26T00:55:38;17.30;99.90
5617;DHT22;2830;50.656;7.568;2023-06-26T00:58:05;17.30;99.90
5617;DHT22;2830;50.656;7.568;2023-06-26T01:00:31;17.30;99.90
5617;DHT22;2830;50.656;7.568;2023-06-26T01:02:58;17.20;99.90
5617;DHT22;2830;50.656;7.568;2023-06-26T01:05:27;17.20;99.90
5617;DHT22;2830;50.656;7.568;2023-06-26T01:07:54;17.10;99.90
5617;DHT22;2830;50.656;7.568;2023-06-26T01:10:23;17.10;99.90
5617;DHT22;2830;50.656;7.568;2023-06-26T01:12:50;17.00;99.90
5617;DHT22;2830;50.656;7.568;2023-06-26T01:15:17;16.90;99.90
5617;DHT22;2830;50.656;7.568;2023-06-26T01:17:44;16.80;99.90
5617;DHT22;2830;50.656;7.568;2023-06-26T01:20:14;16.80;99.90
5617;DHT22;2830;50.656;7.568;2023-06-26T01:22:45;16.90;99.90
5617;DHT22;2830;50.656;7.568;2023-06-26T01:25:34;16.80;99.90
5617;DHT22;2830;50.656;7.568;2023-06-26T01:28:07;16.80;99.90
5617;DHT22;2830;50.656;7.568;2023-06-26T01:30:39;16.70;99.90
5617;DHT22;2830;50.656;7.568;2023-06-26T01:33:07;16.70;99.90
5617;DHT22;2830;50.656;7.568;2023-06-26T01:35:34;16.60;99.90
5617;DHT22;2830;50.656;7.568;2023-06-26T01:38:17;16.50;99.90
5617;DHT22;2830;50.656;7.568;2023-06-26T01:40:44;16.60;99.90
5617;DHT22;2830;50.656;7.568;2023-06-26T01:46:17;16.50;99.90
5617;DHT22;2830;50.656;7.568;2023-06-26T01:51:32;16.60;99.90
5617;DHT22;2830;50.656;7.568;2023-06-26T01:54:02;16.50;99.90
5617;DHT22;2830;50.656;7.568;2023-06-26T01:56:30;16.60;99.90
5617;DHT22;2830;50.656;7.568;2023-06-26T01:58:57;16.50;99.90
5617;DHT22;2830;50.656;7.568;2023-06-26T02:01:26;16.50;99.90
5617;DHT22;2830;50.656;7.568;2023-06-26T02:03:52;16.40;99.90
5617;DHT22;2830;50.656;7.568;2023-06-26T02:06:19;16.30;99.90
5617;DHT22;2830;50.656;7.568;2023-06-26T02:08:46;16.30;99.90
5617;DHT22;2830;50.656;7.568;2023-06-26T02:11:13;16.30;99.90
5617;DHT22;2830;50.656;7.568;2023-06-26T02:13:39;16.30;99.90
5617;DHT22;2830;50.656;7.568;2023-06-26T02:16:06;16.20;99.90
5617;DHT22;2830;50.656;7.568;2023-06-26T02:18:33;16.20;99.90
5617;DHT22;2830;50.656;7.568;2023-06-26T02:20:59;16.10;99.90
5617;DHT22;2830;50.656;7.568;2023-06-26T02:23:26;16.10;99.90
5617;DHT22;2830;50.656;7.568;2023-06-26T02:25:53;16.00;99.90
5617;DHT22;2830;50.656;7.568;2023-06-26T02:28:20;16.10;99.90
5617;DHT22;2830;50.656;7.568;2023-06-26T02:30:46;16.10;99.90
5617;DHT22;2830;50.656;7.568;2023-06-26T02:33:13;16.10;99.90
5617;DHT22;2830;50.656;7.568;2023-06-26T02:35:40;16.00;99.90
5617;DHT22;2830;50.656;7.568;2023-06-26T02:38:06;16.00;99.90
5617;DHT22;2830;50.656;7.568;2023-06-26T02:40:33;16.00;99.90
5617;DHT22;2830;50.656;7.568;2023-06-26T02:43:00;15.90;99.90
5617;DHT22;2830;50.656;7.568;2023-06-26T02:45:26;15.90;99.90
5617;DHT22;2830;50.656;7.568;2023-06-26T02:47:53;15.90;99.90
5617;DHT22;2830;50.656;7.568;2023-06-26T02:50:20;15.80;99.90
5617;DHT22;2830;50.656;7.568;2023-06-26T02:52:46;15.80;99.90
5617;DHT22;2830;50.656;7.568;2023-06-26T02:55:17;15.80;99.90
5617;DHT22;2830;50.656;7.568;2023-06-26T02:57:45;15.80;99.90
5617;DHT22;2830;50.656;7.568;2023-06-26T03:00:12;15.70;99.90
5617;DHT22;2830;50.656;7.568;2023-06-26T03:02:39;15.70;99.90
5617;DHT22;2830;50.656;7.568;2023-06-26T03:05:06;15.60;99.90
5617;DHT22;2830;50.656;7.568;2023-06-26T03:07:33;15.70;99.90
5617;DHT22;2830;50.656;7.568;2023-06-26T03:09:59;15.70;99.90
5617;DHT22;2830;50.656;7.568;2023-06-26T03:12:26;15.60;99.90
5617;DHT22;2830;50.656;7.568;2023-06-26T03:14:53;15.60;99.90
5617;DHT22;2830;50.656;7.568;2023-06-26T03:17:20;15.60;99.90
5617;DHT22;2830;50.656;7.568;2023-06-26T03:19:46;15.60;99.90
5617;DHT22;2830;50.656;7.568;2023-06-26T03:22:13;15.60;99.90
5617;DHT22;2830;50.656;7.568;2023-06-26T03:24:40;15.60;99.90
5617;DHT22;2830;50.656;7.568;2023-06-26T03:27:07;15.60;99.90
5617;DHT22;2830;50.656;7.568;2023-06-26T03:29:36;15.60;99.90
5617;DHT22;2830;50.656;7.568;2023-06-26T03:32:20;15.50;99.90
5617;DHT22;2830;50.656;7.568;2023-06-26T03:34:47;15.50;99.90
5617;DHT22;2830;50.656;7.568;2023-06-26T03:37:13;15.60;99.90
5617;DHT22;2830;50.656;7.568;2023-06-26T03:39:40;15.70;99.90
5617;DHT22;2830;50.656;7.568;2023-06-26T03:42:07;15.70;99.90
5617;DHT22;2830;50.656;7.568;2023-06-26T03:44:34;15.70;99.90
5617;DHT22;2830;50.656;7.568;2023-06-26T03:47:00;15.60;99.90
5617;DHT22;2830;50.656;7.568;2023-06-26T03:49:27;15.60;99.90
5617;DHT22;2830;50.656;7.568;2023-06-26T03:51:54;15.50;99.90
5617;DHT22;2830;50.656;7.568;2023-06-26T03:54:20;15.50;99.90
5617;DHT22;2830;50.656;7.568;2023-06-26T03:56:47;15.60;99.90
5617;DHT22;2830;50.656;7.568;2023-06-26T03:59:14;15.50;99.90
5617;DHT22;2830;50.656;7.568;2023-06-26T04:01:41;15.70;99.90
5617;DHT22;2830;50.656;7.568;2023-06-26T04:04:08;15.70;99.90
5617;DHT22;2830;50.656;7.568;2023-06-26T04:06:34;15.70;99.90
5617;DHT22;2830;50.656;7.568;2023-06-26T04:09:01;15.70;99.90
5617;DHT22;2830;50.656;7.568;2023-06-26T04:11:29;15.90;99.90
5617;DHT22;2830;50.656;7.568;2023-06-26T04:13:55;15.90;99.90
5617;DHT22;2830;50.656;7.568;2023-06-26T04:16:22;15.90;99.90
5617;DHT22;2830;50.656;7.568;2023-06-26T04:18:52;15.90;99.90
5617;DHT22;2830;50.656;7.568;2023-06-26T04:21:19;15.80;99.90
5617;DHT22;2830;50.656;7.568;2023-06-26T04:23:46;15.80;99.90
5617;DHT22;2830;50.656;7.568;2023-06-26T04:26:14;15.90;99.90
5617;DHT22;2830;50.656;7.568;2023-06-26T04:28:41;16.00;99.90
5617;DHT22;2830;50.656;7.568;2023-06-26T04:31:09;16.10;99.90
5617;DHT22;2830;50.656;7.568;2023-06-26T04:33:36;16.20;99.90
5617;DHT22;2830;50.656;7.568;2023-06-26T04:36:07;16.30;99.90
5617;DHT22;2830;50.656;7.568;2023-06-26T04:38:33;16.40;99.90
5617;DHT22;2830;50.656;7.568;2023-06-26T04:41:01;16.50;99.90
5617;DHT22;2830;50.656;7.568;2023-06-26T04:43:27;16.80;99.90
5617;DHT22;2830;50.656;7.568;2023-06-26T04:46:03;16.70;99.90
5617;DHT22;2830;50.656;7.568;2023-06-26T04:48:29;16.70;99.90
5617;DHT22;2830;50.656;7.568;2023-06-26T04:50:57;16.80;99.90
5617;DHT22;2830;50.656;7.568;2023-06-26T04:53:25;16.80;99.90
5617;DHT22;2830;50.656;7.568;2023-06-26T04:55:52;16.90;99.90
5617;DHT22;2830;50.656;7.568;2023-06-26T04:58:27;16.90;99.90
5617;DHT22;2830;50.656;7.568;2023-06-26T05:00:54;16.90;99.90
5617;DHT22;2830;50.656;7.568;2023-06-26T05:03:32;17.00;99.90
5617;DHT22;2830;50.656;7.568;2023-06-26T05:05:59;17.20;99.90
5617;DHT22;2830;50.656;7.568;2023-06-26T05:08:31;17.50;99.90
5617;DHT22;2830;50.656;7.568;2023-06-26T05:10:58;17.60;99.90
5617;DHT22;2830;50.656;7.568;2023-06-26T05:13:56;17.60;99.90
5617;DHT22;2830;50.656;7.568;2023-06-26T05:16:22;18.00;99.90
5617;DHT22;2830;50.656;7.568;2023-06-26T05:18:49;18.40;99.90
5617;DHT22;2830;50.656;7.568;2023-06-26T05:21:16;18.50;99.90
5617;DHT22;2830;50.656;7.568;2023-06-26T05:23:57;18.60;99.90
5617;DHT22;2830;50.656;7.568;2023-06-26T05:26:25;19.00;99.90
5617;DHT22;2830;50.656;7.568;2023-06-26T05:28:52;19.10;99.90
5617;DHT22;2830;50.656;7.568;2023-06-26T05:31:19;19.40;99.90
5617;DHT22;2830;50.656;7.568;2023-06-26T05:33:46;20.10;99.90
5617;DHT22;2830;50.656;7.568;2023-06-26T05:36:16;20.80;99.90
5617;DHT22;2830;50.656;7.568;2023-06-26T05:38:43;21.40;99.90
5617;DHT22;2830;50.656;7.568;2023-06-26T05:41:21;21.90;99.90
5617;DHT22;2830;50.656;7.568;2023-06-26T05:43:47;22.30;99.90
5617;DHT22;2830;50.656;7.568;2023-06-26T05:46:14;22.40;99.90
5617;DHT22;2830;50.656;7.568;2023-06-26T05:48:41;22.30;99.90
5617;DHT22;2830;50.656;7.568;2023-06-26T05:51:08;22.30;99.90
5617;DHT22;2830;50.656;7.568;2023-06-26T05:53:35;22.50;99.90
5617;DHT22;2830;50.656;7.568;2023-06-26T05:56:02;22.90;99.90
5617;DHT22;2830;50.656;7.568;2023-06-26T05:58:30;23.00;99.90
5617;DHT22;2830;50.656;7.568;2023-06-26T06:00:56;23.20;99.90
5617;DHT22;2830;50.656;7.568;2023-06-26T06:03:23;23.20;99.90
5617;DHT22;2830;50.656;7.568;2023-06-26T06:05:58;23.00;99.90
5617;DHT22;2830;50.656;7.568;2023-06-26T06:08:25;22.90;99.90
5617;DHT22;2830;50.656;7.568;2023-06-26T06:10:52;22.80;99.90
5617;DHT22;2830;50.656;7.568;2023-06-26T06:13:19;23.00;99.90
5617;DHT22;2830;50.656;7.568;2023-06-26T06:15:47;23.10;99.90
5617;DHT22;2830;50.656;7.568;2023-06-26T06:18:14;23.10;99.90
5617;DHT22;2830;50.656;7.568;2023-06-26T06:20:40;23.10;99.90
5617;DHT22;2830;50.656;7.568;2023-06-26T06:23:07;23.20;99.90
5617;DHT22;2830;50.656;7.568;2023-06-26T06:25:34;23.30;99.90
5617;DHT22;2830;50.656;7.568;2023-06-26T06:28:01;23.80;99.90
5617;DHT22;2830;50.656;7.568;2023-06-26T06:30:28;25.90;99.90
5617;DHT22;2830;50.656;7.568;2023-06-26T06:33:01;24.10;99.30
5617;DHT22;2830;50.656;7.568;2023-06-26T06:35:31;23.90;98.20
5617;DHT22;2830;50.656;7.568;2023-06-26T06:37:58;23.70;97.90
5617;DHT22;2830;50.656;7.568;2023-06-26T06:40:24;23.50;99.00
5617;DHT22;2830;50.656;7.568;2023-06-26T06:42:52;23.20;99.30
5617;DHT22;2830;50.656;7.568;2023-06-26T06:45:19;23.10;99.70
5617;DHT22;2830;50.656;7.568;2023-06-26T06:47:46;23.30;99.20
5617;DHT22;2830;50.656;7.568;2023-06-26T06:50:13;23.20;99.00
5617;DHT22;2830;50.656;7.568;2023-06-26T06:52:42;23.30;98.50
5617;DHT22;2830;50.656;7.568;2023-06-26T06:55:09;23.30;98.40
5617;DHT22;2830;50.656;7.568;2023-06-26T06:57:39;23.80;97.90
5617;DHT22;2830;50.656;7.568;2023-06-26T07:00:08;24.30;97.90
5617;DHT22;2830;50.656;7.568;2023-06-26T07:02:36;25.10;96.50
5617;DHT22;2830;50.656;7.568;2023-06-26T07:05:03;25.80;93.50
5617;DHT22;2830;50.656;7.568;2023-06-26T07:07:32;25.70;93.90
5617;DHT22;2830;50.656;7.568;2023-06-26T07:10:04;25.40;93.10
5617;DHT22;2830;50.656;7.568;2023-06-26T07:12:31;25.50;93.30
5617;DHT22;2830;50.656;7.568;2023-06-26T07:15:05;26.00;92.50
5617;DHT22;2830;50.656;7.568;2023-06-26T07:17:32;26.10;91.10
5617;DHT22;2830;50.656;7.568;2023-06-26T07:20:01;25.80;92.30
5617;DHT22;2830;50.656;7.568;2023-06-26T07:22:30;25.80;91.50
5617;DHT22;2830;50.656;7.568;2023-06-26T07:24:57;25.90;92.10
5617;DHT22;2830;50.656;7.568;2023-06-26T07:27:25;26.10;92.20
5617;DHT22;2830;50.656;7.568;2023-06-26T07:29:51;26.50;92.10
5617;DHT22;2830;50.656;7.568;2023-06-26T07:32:18;27.10;90.10
5617;DHT22;2830;50.656;7.568;2023-06-26T07:34:45;27.10;88.40
5617;DHT22;2830;50.656;7.568;2023-06-26T07:37:12;26.70;88.20
5617;DHT22;2830;50.656;7.568;2023-06-26T07:39:39;26.40;90.20
5617;DHT22;2830;50.656;7.568;2023-06-26T07:42:05;25.90;90.20
5617;DHT22;2830;50.656;7.568;2023-06-26T07:44:32;25.20;91.60
5617;DHT22;2830;50.656;7.568;2023-06-26T07:46:59;24.90;92.70
5617;DHT22;2830;50.656;7.568;2023-06-26T07:49:25;24.60;94.10
5617;DHT22;2830;50.656;7.568;2023-06-26T07:51:52;24.20;94.10
5617;DHT22;2830;50.656;7.568;2023-06-26T07:54:19;24.20;94.90
5617;DHT22;2830;50.656;7.568;2023-06-26T07:57:00;24.10;94.90
5617;DHT22;2830;50.656;7.568;2023-06-26T07:59:28;23.80;95.90
5617;DHT22;2830;50.656;7.568;2023-06-26T08:01:57;24.00;96.10
5617;DHT22;2830;50.656;7.568;2023-06-26T08:04:26;24.70;96.60
5617;DHT22;2830;50.656;7.568;2023-06-26T08:06:55;25.30;93.60
5617;DHT22;2830;50.656;7.568;2023-06-26T08:09:24;25.30;93.60
5617;DHT22;2830;50.656;7.568;2023-06-26T08:11:51;26.60;93.80
5617;DHT22;2830;50.656;7.568;2023-06-26T08:14:18;24.90;94.50
5617;DHT22;2830;50.656;7.568;2023-06-26T08:16:45;25.70;94.50
5617;DHT22;2830;50.656;7.568;2023-06-26T08:19:13;26.30;93.40
5617;DHT22;2830;50.656;7.568;2023-06-26T08:21:40;26.70;91.50
5617;DHT22;2830;50.656;7.568;2023-06-26T08:24:07;27.30;91.70
5617;DHT22;2830;50.656;7.568;2023-06-26T08:26:34;27.90;90.00
5617;DHT22;2830;50.656;7.568;2023-06-26T08:29:02;28.60;87.70
5617;DHT22;2830;50.656;7.568;2023-06-26T08:31:38;28.20;85.90
5617;DHT22;2830;50.656;7.568;2023-06-26T08:34:05;27.00;89.10
5617;DHT22;2830;50.656;7.568;2023-06-26T08:36:32;27.60;91.60
5617;DHT22;2830;50.656;7.568;2023-06-26T08:38:59;26.60;91.10
5617;DHT22;2830;50.656;7.568;2023-06-26T08:41:26;28.50;88.80
5617;DHT22;2830;50.656;7.568;2023-06-26T08:43:53;27.40;88.70
5617;DHT22;2830;50.656;7.568;2023-06-26T08:46:20;27.80;88.40
5617;DHT22;2830;50.656;7.568;2023-06-26T08:48:55;28.20;86.40
5617;DHT22;2830;50.656;7.568;2023-06-26T08:51:25;29.10;85.50
5617;DHT22;2830;50.656;7.568;2023-06-26T08:53:59;29.90;82.70
5617;DHT22;2830;50.656;7.568;2023-06-26T08:56:37;29.00;80.50
5617;DHT22;2830;50.656;7.568;2023-06-26T08:59:06;29.30;85.60
5617;DHT22;2830;50.656;7.568;2023-06-26T09:01:33;29.80;83.10
5617;DHT22;2830;50.656;7.568;2023-06-26T09:04:00;30.40;75.00
5617;DHT22;2830;50.656;7.568;2023-06-26T09:06:28;29.90;77.20
5617;DHT22;2830;50.656;7.568;2023-06-26T09:08:55;28.40;80.10
5617;DHT22;2830;50.656;7.568;2023-06-26T09:11:26;27.30;84.60
5617;DHT22;2830;50.656;7.568;2023-06-26T09:13:55;26.40;85.40
5617;DHT22;2830;50.656;7.568;2023-06-26T09:16:25;27.20;87.60
5617;DHT22;2830;50.656;7.568;2023-06-26T09:18:56;28.40;82.80
5617;DHT22;2830;50.656;7.568;2023-06-26T09:21:23;29.30;77.60
5617;DHT22;2830;50.656;7.568;2023-06-26T09:23:52;29.70;73.90
5617;DHT22;2830;50.656;7.568;2023-06-26T09:26:19;32.10;74.60
5617;DHT22;2830;50.656;7.568;2023-06-26T09:28:48;29.60;70.20
5617;DHT22;2830;50.656;7.568;2023-06-26T09:31:15;29.80;71.50
5617;DHT22;2830;50.656;7.568;2023-06-26T09:34:03;30.30;72.80
5617;DHT22;2830;50.656;7.568;2023-06-26T09:36:30;30.10;69.70
5617;DHT22;2830;50.656;7.568;2023-06-26T09:39:04;29.60;68.00
5617;DHT22;2830;50.656;7.568;2023-06-26T09:41:31;27.70;73.30
5617;DHT22;2830;50.656;7.568;2023-06-26T09:44:01;27.80;77.00
5617;DHT22;2830;50.656;7.568;2023-06-26T09:46:29;26.80;79.90
5617;DHT22;2830;50.656;7.568;2023-06-26T09:49:10;28.00;81.00
5617;DHT22;2830;50.656;7.568;2023-06-26T09:51:39;28.70;74.40
5617;DHT22;2830;50.656;7.568;2023-06-26T09:54:07;28.20;76.90
5617;DHT22;2830;50.656;7.568;2023-06-26T09:56:34;27.80;75.40
5617;DHT22;2830;50.656;7.568;2023-06-26T09:59:03;28.70;80.50
5617;DHT22;2830;50.656;7.568;2023-06-26T10:01:30;28.80;76.60
5617;DHT22;2830;50.656;7.568;2023-06-26T10:03:59;28.80;71.50
5617;DHT22;2830;50.656;7.568;2023-06-26T10:06:47;27.90;73.70
5617;DHT22;2830;50.656;7.568;2023-06-26T10:09:17;27.60;75.40
5617;DHT22;2830;50.656;7.568;2023-06-26T10:11:56;27.90;74.00
5617;DHT22;2830;50.656;7.568;2023-06-26T10:14:27;29.10;73.50
5617;DHT22;2830;50.656;7.568;2023-06-26T10:16:57;29.50;70.70
5617;DHT22;2830;50.656;7.568;2023-06-26T10:19:28;29.40;72.60
5617;DHT22;2830;50.656;7.568;2023-06-26T10:22:02;29.30;71.60
5617;DHT22;2830;50.656;7.568;2023-06-26T10:24:33;29.40;67.10
5617;DHT22;2830;50.656;7.568;2023-06-26T10:27:10;28.50;70.60
5617;DHT22;2830;50.656;7.568;2023-06-26T10:29:40;28.60;71.00
5617;DHT22;2830;50.656;7.568;2023-06-26T10:32:12;29.50;72.10
5617;DHT22;2830;50.656;7.568;2023-06-26T10:34:39;29.30;68.70
5617;DHT22;2830;50.656;7.568;2023-06-26T10:37:06;30.70;69.60
5617;DHT22;2830;50.656;7.568;2023-06-26T10:39:53;29.00;72.10
5617;DHT22;2830;50.656;7.568;2023-06-26T10:42:36;29.70;72.40
5617;DHT22;2830;50.656;7.568;2023-06-26T10:45:19;30.20;74.60
5617;DHT22;2830;50.656;7.568;2023-06-26T10:47:47;29.60;66.90
5617;DHT22;2830;50.656;7.568;2023-06-26T10:53:08;28.40;67.70
5617;DHT22;2830;50.656;7.568;2023-06-26T10:55:42;29.90;65.40
5617;DHT22;2830;50.656;7.568;2023-06-26T10:58:40;30.80;61.60
5617;DHT22;2830;50.656;7.568;2023-06-26T11:01:20;31.00;60.60
5617;DHT22;2830;50.656;7.568;2023-06-26T11:04:01;30.80;57.70
5617;DHT22;2830;50.656;7.568;2023-06-26T11:06:29;29.60;59.70
5617;DHT22;2830;50.656;7.568;2023-06-26T11:09:08;29.80;64.70
5617;DHT22;2830;50.656;7.568;2023-06-26T11:14:22;32.00;58.20
5617;DHT22;2830;50.656;7.568;2023-06-26T11:16:49;31.80;56.60
5617;DHT22;2830;50.656;7.568;2023-06-26T11:19:20;31.60;58.00
5617;DHT22;2830;50.656;7.568;2023-06-26T11:21:48;31.40;54.30
5617;DHT22;2830;50.656;7.568;2023-06-26T11:24:16;31.50;56.10
5617;DHT22;2830;50.656;7.568;2023-06-26T11:26:44;31.60;55.20
5617;DHT22;2830;50.656;7.568;2023-06-26T11:29:11;31.50;56.10
5617;DHT22;2830;50.656;7.568;2023-06-26T11:31:40;30.90;54.40
5617;DHT22;2830;50.656;7.568;2023-06-26T11:34:13;31.80;55.40
5617;DHT22;2830;50.656;7.568;2023-06-26T11:36:41;31.80;54.30
5617;DHT22;2830;50.656;7.568;2023-06-26T11:39:09;31.50;54.00
5617;DHT22;2830;50.656;7.568;2023-06-26T11:41:38;31.40;56.30
5617;DHT22;2830;50.656;7.568;2023-06-26T11:44:07;31.80;51.30
5617;DHT22;2830;50.656;7.568;2023-06-26T11:46:38;32.90;55.30
5617;DHT22;2830;50.656;7.568;2023-06-26T11:49:06;33.70;52.70
5617;DHT22;2830;50.656;7.568;2023-06-26T11:51:34;32.50;53.10
5617;DHT22;2830;50.656;7.568;2023-06-26T11:54:03;31.30;48.90
5617;DHT22;2830;50.656;7.568;2023-06-26T11:56:31;31.50;51.90
5617;DHT22;2830;50.656;7.568;2023-06-26T11:58:59;31.50;49.50
5617;DHT22;2830;50.656;7.568;2023-06-26T12:01:39;30.80;49.80
5617;DHT22;2830;50.656;7.568;2023-06-26T12:04:07;30.30;51.60
5617;DHT22;2830;50.656;7.568;2023-06-26T12:06:39;31.20;55.60
5617;DHT22;2830;50.656;7.568;2023-06-26T12:09:09;29.90;54.90
5617;DHT22;2830;50.656;7.568;2023-06-26T12:11:40;30.60;55.80
5617;DHT22;2830;50.656;7.568;2023-06-26T12:14:08;29.60;55.90
5617;DHT22;2830;50.656;7.568;2023-06-26T12:16:36;30.10;55.50
5617;DHT22;2830;50.656;7.568;2023-06-26T12:19:04;31.30;55.70
5617;DHT22;2830;50.656;7.568;2023-06-26T12:24:06;29.50;54.90
5617;DHT22;2830;50.656;7.568;2023-06-26T12:26:33;29.20;53.30
5617;DHT22;2830;50.656;7.568;2023-06-26T12:29:03;30.40;58.60
5617;DHT22;2830;50.656;7.568;2023-06-26T12:31:31;29.60;51.50
5617;DHT22;2830;50.656;7.568;2023-06-26T12:33:58;29.50;49.90
5617;DHT22;2830;50.656;7.568;2023-06-26T12:36:25;29.70;51.40
5617;DHT22;2830;50.656;7.568;2023-06-26T12:38:55;29.20;55.10
5617;DHT22;2830;50.656;7.568;2023-06-26T12:41:24;29.10;53.70
5617;DHT22;2830;50.656;7.568;2023-06-26T12:43:55;28.50;54.50
5617;DHT22;2830;50.656;7.568;2023-06-26T12:46:33;28.40;57.20
5617;DHT22;2830;50.656;7.568;2023-06-26T12:49:02;28.20;52.10
5617;DHT22;2830;50.656;7.568;2023-06-26T12:51:37;28.20;54.90
5617;DHT22;2830;50.656;7.568;2023-06-26T12:54:04;28.10;52.10
5617;DHT22;2830;50.656;7.568;2023-06-26T12:56:31;28.10;54.60
5617;DHT22;2830;50.656;7.568;2023-06-26T12:58:57;28.20;56.40
5617;DHT22;2830;50.656;7.568;2023-06-26T13:01:24;28.50;56.70
5617;DHT22;2830;50.656;7.568;2023-06-26T13:03:51;29.30;56.70
5617;DHT22;2830;50.656;7.568;2023-06-26T13:06:18;28.50;55.10
5617;DHT22;2830;50.656;7.568;2023-06-26T13:08:45;28.70;56.40
5617;DHT22;2830;50.656;7.568;2023-06-26T13:11:12;28.00;55.40
5617;DHT22;2830;50.656;7.568;2023-06-26T13:13:39;27.60;54.90
5617;DHT22;2830;50.656;7.568;2023-06-26T13:16:05;27.60;56.80
5617;DHT22;2830;50.656;7.568;2023-06-26T13:18:32;27.40;56.60
5617;DHT22;2830;50.656;7.568;2023-06-26T13:20:59;28.60;57.10
5617;DHT22;2830;50.656;7.568;2023-06-26T13:23:25;28.30;54.20
5617;DHT22;2830;50.656;7.568;2023-06-26T13:25:53;28.30;52.90
5617;DHT22;2830;50.656;7.568;2023-06-26T13:28:19;28.20;50.10
5617;DHT22;2830;50.656;7.568;2023-06-26T13:30:46;27.20;52.20
5617;DHT22;2830;50.656;7.568;2023-06-26T13:33:13;26.90;54.30
5617;DHT22;2830;50.656;7.568;2023-06-26T13:35:40;26.90;55.00
5617;DHT22;2830;50.656;7.568;2023-06-26T13:38:06;26.80;55.90
5617;DHT22;2830;50.656;7.568;2023-06-26T13:40:33;27.80;56.90
5617;DHT22;2830;50.656;7.568;2023-06-26T13:43:00;26.60;56.90
5617;DHT22;2830;50.656;7.568;2023-06-26T13:45:27;26.00;54.40
5617;DHT22;2830;50.656;7.568;2023-06-26T13:47:57;25.80;56.20
5617;DHT22;2830;50.656;7.568;2023-06-26T13:50:24;26.10;55.60
5617;DHT22;2830;50.656;7.568;2023-06-26T13:52:51;26.60;55.40
5617;DHT22;2830;50.656;7.568;2023-06-26T13:55:17;26.60;55.30
5617;DHT22;2830;50.656;7.568;2023-06-26T13:57:45;26.80;54.30
5617;DHT22;2830;50.656;7.568;2023-06-26T14:00:12;27.10;52.30
5617;DHT22;2830;50.656;7.568;2023-06-26T14:02:39;27.10;53.60
5617;DHT22;2830;50.656;7.568;2023-06-26T14:05:06;26.40;55.40
5617;DHT22;2830;50.656;7.568;2023-06-26T14:07:33;26.30;56.70
5617;DHT22;2830;50.656;7.568;2023-06-26T14:10:01;26.30;58.10
5617;DHT22;2830;50.656;7.568;2023-06-26T14:12:27;26.70;59.10
5617;DHT22;2830;50.656;7.568;2023-06-26T14:14:54;25.90;58.90
5617;DHT22;2830;50.656;7.568;2023-06-26T14:17:21;26.20;59.60
5617;DHT22;2830;50.656;7.568;2023-06-26T14:19:53;26.20;58.00
5617;DHT22;2830;50.656;7.568;2023-06-26T14:22:20;26.00;60.00
5617;DHT22;2830;50.656;7.568;2023-06-26T14:24:48;25.70;61.00
5617;DHT22;2830;50.656;7.568;2023-06-26T14:27:15;25.70;61.80
5617;DHT22;2830;50.656;7.568;2023-06-26T14:29:42;25.80;61.60
5617;DHT22;2830;50.656;7.568;2023-06-26T14:32:10;25.90;62.80
5617;DHT22;2830;50.656;7.568;2023-06-26T14:34:37;26.00;61.30
5617;DHT22;2830;50.656;7.568;2023-06-26T14:37:06;25.80;60.60
5617;DHT22;2830;50.656;7.568;2023-06-26T14:39:32;25.50;60.40
5617;DHT22;2830;50.656;7.568;2023-06-26T14:41:59;25.20;61.50
5617;DHT22;2830;50.656;7.568;2023-06-26T14:44:27;25.10;64.30
5617;DHT22;2830;50.656;7.568;2023-06-26T14:46:54;25.00;61.80
5617;DHT22;2830;50.656;7.568;2023-06-26T14:49:21;25.20;63.40
5617;DHT22;2830;50.656;7.568;2023-06-26T14:51:47;25.30;65.50
5617;DHT22;2830;50.656;7.568;2023-06-26T14:54:14;25.50;62.90
5617;DHT22;2830;50.656;7.568;2023-06-26T14:56:41;25.30;59.90
5617;DHT22;2830;50.656;7.568;2023-06-26T14:59:10;25.10;62.20
5617;DHT22;2830;50.656;7.568;2023-06-26T15:01:38;25.30;61.20
5617;DHT22;2830;50.656;7.568;2023-06-26T15:04:05;24.90;60.40
5617;DHT22;2830;50.656;7.568;2023-06-26T15:06:32;25.10;61.00
5617;DHT22;2830;50.656;7.568;2023-06-26T15:09:00;24.90;61.10
5617;DHT22;2830;50.656;7.568;2023-06-26T15:11:28;24.80;61.70
5617;DHT22;2830;50.656;7.568;2023-06-26T15:13:57;24.70;61.20
5617;DHT22;2830;50.656;7.568;2023-06-26T15:16:24;24.70;61.10
5617;DHT22;2830;50.656;7.568;2023-06-26T15:18:51;24.60;60.80
5617;DHT22;2830;50.656;7.568;2023-06-26T15:21:17;24.50;60.40
5617;DHT22;2830;50.656;7.568;2023-06-26T15:23:46;24.10;63.10
5617;DHT22;2830;50.656;7.568;2023-06-26T15:26:13;23.90;61.30
5617;DHT22;2830;50.656;7.568;2023-06-26T15:28:42;24.10;63.30
5617;DHT22;2830;50.656;7.568;2023-06-26T15:31:09;25.90;62.20
5617;DHT22;2830;50.656;7.568;2023-06-26T15:33:36;24.30;61.20
5617;DHT22;2830;50.656;7.568;2023-06-26T15:36:03;24.40;60.60
5617;DHT22;2830;50.656;7.568;2023-06-26T15:38:29;24.50;60.00
5617;DHT22;2830;50.656;7.568;2023-06-26T15:40:56;25.70;60.30
5617;DHT22;2830;50.656;7.568;2023-06-26T15:43:23;24.40;61.40
5617;DHT22;2830;50.656;7.568;2023-06-26T15:45:50;24.90;62.00
5617;DHT22;2830;50.656;7.568;2023-06-26T15:48:16;24.70;61.20
5617;DHT22;2830;50.656;7.568;2023-06-26T15:50:44;24.70;59.70
5617;DHT22;2830;50.656;7.568;2023-06-26T15:53:15;24.50;59.80
5617;DHT22;2830;50.656;7.568;2023-06-26T15:55:43;24.50;61.00
5617;DHT22;2830;50.656;7.568;2023-06-26T15:58:10;24.50;56.60
5617;DHT22;2830;50.656;7.568;2023-06-26T16:00:36;23.90;59.20
5617;DHT22;2830;50.656;7.568;2023-06-26T16:03:03;23.80;60.40
5617;DHT22;2830;50.656;7.568;2023-06-26T16:05:30;23.80;59.50
5617;DHT22;2830;50.656;7.568;2023-06-26T16:07:57;23.70;59.80
5617;DHT22;2830;50.656;7.568;2023-06-26T16:10:24;23.70;60.50
5617;DHT22;2830;50.656;7.568;2023-06-26T16:12:51;23.90;59.70
5617;DHT22;2830;50.656;7.568;2023-06-26T16:15:18;23.60;59.70
5617;DHT22;2830;50.656;7.568;2023-06-26T16:17:44;23.40;60.20
5617;DHT22;2830;50.656;7.568;2023-06-26T16:20:11;23.40;60.70
5617;DHT22;2830;50.656;7.568;2023-06-26T16:22:39;24.30;63.20
5617;DHT22;2830;50.656;7.568;2023-06-26T16:25:06;23.30;62.00